createdAt,value
2023-10-28T00:01:37.194Z,5.53
2023-10-28T00:04:03.694Z,6.30
2023-10-28T00:06:30.621Z,5.25
2023-10-28T00:08:56.957Z,6.30
2023-10-28T00:11:23.944Z,6.32
2023-10-28T00:13:51.163Z,5.82
2023-10-28T00:16:17.624Z,5.88
2023-10-28T00:18:44.192Z,5.95
2023-10-28T00:21:12.787Z,6.55
2023-10-28T00:23:39.158Z,6.13
2023-10-28T00:26:06.098Z,7.22
2023-10-28T00:28:35.812Z,6.40
2023-10-28T00:31:03.404Z,6.27
2023-10-28T00:33:30.204Z,6.75
2023-10-28T00:35:56.559Z,6.28
2023-10-28T00:38:23.312Z,6.38
2023-10-28T00:40:49.932Z,6.40
2023-10-28T00:43:16.284Z,6.43
2023-10-28T00:45:43.268Z,6.75
2023-10-28T00:48:09.577Z,6.22
2023-10-28T00:50:36.046Z,6.22
2023-10-28T00:53:05.563Z,6.35
2023-10-28T00:55:32.462Z,6.32
2023-10-28T00:57:59.118Z,6.55
2023-10-28T01:00:25.418Z,6.13
2023-10-28T01:02:53.477Z,6.20
2023-10-28T01:05:20.342Z,6.13
2023-10-28T01:07:47.703Z,6.32
2023-10-28T01:10:24.597Z,6.07
2023-10-28T01:12:50.868Z,5.90
2023-10-28T01:15:17.137Z,5.57
2023-10-28T01:17:43.954Z,5.70
2023-10-28T01:20:11.811Z,5.95
2023-10-28T01:22:38.366Z,5.53
2023-10-28T01:25:04.866Z,6.53
2023-10-28T01:27:31.127Z,5.63
2023-10-28T01:29:57.447Z,5.80
2023-10-28T01:32:23.788Z,5.88
2023-10-28T01:34:51.569Z,5.20
2023-10-28T01:37:18.379Z,5.53
2023-10-28T01:39:49.603Z,4.75
2023-10-28T01:42:16.152Z,5.20
2023-10-28T01:44:42.620Z,6.13
2023-10-28T01:47:11.885Z,5.20
2023-10-28T01:49:38.828Z,5.97
2023-10-28T01:52:05.611Z,5.78
2023-10-28T01:54:34.608Z,5.07
2023-10-28T01:57:01.677Z,5.15
2023-10-28T01:59:28.099Z,5.32
2023-10-28T02:01:54.958Z,5.38
2023-10-28T02:04:21.257Z,5.43
2023-10-28T02:06:50.522Z,5.75
2023-10-28T02:09:18.808Z,5.07
2023-10-28T02:11:45.169Z,6.28
2023-10-28T02:14:12.944Z,6.70
2023-10-28T02:16:39.428Z,5.00
2023-10-28T02:19:06.191Z,5.18
2023-10-28T02:21:32.955Z,6.10
2023-10-28T02:24:01.157Z,5.93
2023-10-28T02:26:27.469Z,5.63
2023-10-28T02:28:53.812Z,6.63
2023-10-28T02:31:20.148Z,5.80
2023-10-28T02:33:46.445Z,6.30
2023-10-28T02:36:13.720Z,5.80
2023-10-28T02:38:41.278Z,5.00
2023-10-28T02:41:08.053Z,6.10
2023-10-28T02:43:36.295Z,5.68
2023-10-28T02:46:04.163Z,5.95
2023-10-28T02:48:31.002Z,6.43
2023-10-28T02:51:02.788Z,5.40
2023-10-28T02:53:29.479Z,5.45
2023-10-28T02:55:55.879Z,5.28
2023-10-28T02:58:22.257Z,6.68
2023-10-28T03:00:48.584Z,5.20
2023-10-28T03:03:14.966Z,6.10
2023-10-28T03:05:41.364Z,5.53
2023-10-28T03:08:07.731Z,5.95
2023-10-28T03:10:34.089Z,5.90
2023-10-28T03:13:00.417Z,4.82
2023-10-28T03:15:26.837Z,5.38
2023-10-28T03:17:53.302Z,5.25
2023-10-28T03:20:21.808Z,4.40
2023-10-28T03:22:48.358Z,4.85
2023-10-28T03:25:14.982Z,4.28
2023-10-28T03:27:41.329Z,4.65
2023-10-28T03:30:07.912Z,5.18
2023-10-28T03:32:34.214Z,4.68
2023-10-28T03:35:00.525Z,4.65
2023-10-28T03:37:27.933Z,4.82
2023-10-28T03:39:54.264Z,4.20
2023-10-28T03:42:20.624Z,4.47
2023-10-28T03:44:47.945Z,4.60
2023-10-28T03:47:14.422Z,4.82
2023-10-28T03:49:40.800Z,4.85
2023-10-28T03:52:07.851Z,4.57
2023-10-28T03:54:34.176Z,4.28
2023-10-28T03:57:00.483Z,4.30
2023-10-28T03:59:26.742Z,3.85
2023-10-28T04:01:53.147Z,4.72
2023-10-28T04:04:19.621Z,4.80
2023-10-28T04:06:46.381Z,4.30
2023-10-28T04:09:15.255Z,4.70
2023-10-28T04:11:41.890Z,3.72
2023-10-28T04:14:08.818Z,3.83
2023-10-28T04:16:35.157Z,4.10
2023-10-28T04:19:01.433Z,3.72
2023-10-28T04:21:28.788Z,3.40
2023-10-28T04:23:55.068Z,4.10
2023-10-28T04:26:21.330Z,3.33
2023-10-28T04:28:47.702Z,4.05
2023-10-28T04:31:16.306Z,3.40
2023-10-28T04:33:42.722Z,3.22
2023-10-28T04:36:10.912Z,3.00
2023-10-28T04:38:40.264Z,3.50
2023-10-28T04:41:09.417Z,3.13
2023-10-28T04:43:36.118Z,3.35
2023-10-28T04:46:02.422Z,3.35
2023-10-28T04:48:30.002Z,3.53
2023-10-28T04:50:56.433Z,3.72
2023-10-28T04:53:25.420Z,3.25
2023-10-28T04:55:51.700Z,3.10
2023-10-28T04:58:18.850Z,2.92
2023-10-28T05:00:46.242Z,3.00
2023-10-28T05:03:13.739Z,3.17
2023-10-28T05:05:40.273Z,3.00
2023-10-28T05:08:06.645Z,2.97
2023-10-28T05:10:33.355Z,2.75
2023-10-28T05:13:00.641Z,2.50
2023-10-28T05:15:26.986Z,2.50
2023-10-28T05:17:53.374Z,2.60
2023-10-28T05:20:19.821Z,2.80
2023-10-28T05:22:46.790Z,2.60
2023-10-28T05:25:13.891Z,2.83
2023-10-28T05:27:40.885Z,2.15
2023-10-28T05:30:07.503Z,2.47
2023-10-28T05:32:33.940Z,2.22
2023-10-28T05:35:01.044Z,2.90
2023-10-28T05:37:28.436Z,2.50
2023-10-28T05:39:54.800Z,3.08
2023-10-28T05:42:21.156Z,2.88
2023-10-28T05:44:47.854Z,3.00
2023-10-28T05:47:14.205Z,3.13
2023-10-28T05:49:40.512Z,3.20
2023-10-28T05:52:06.851Z,2.80
2023-10-28T05:54:34.008Z,3.35
2023-10-28T05:57:00.350Z,2.83
2023-10-28T05:59:26.645Z,2.97
2023-10-28T06:01:53.083Z,2.97
2023-10-28T06:04:22.291Z,2.67
2023-10-28T06:06:49.409Z,3.60
2023-10-28T06:09:16.389Z,3.25
2023-10-28T06:11:43.048Z,3.53
2023-10-28T06:14:09.946Z,3.25
2023-10-28T06:16:36.906Z,2.80
2023-10-28T06:19:03.210Z,3.08
2023-10-28T06:21:29.545Z,2.85
2023-10-28T06:23:55.875Z,3.05
2023-10-28T06:26:22.291Z,3.67
2023-10-28T06:28:48.748Z,3.00
2023-10-28T06:31:15.552Z,3.20
2023-10-28T06:33:42.000Z,2.78
2023-10-28T06:36:09.860Z,3.35
2023-10-28T06:38:36.227Z,2.47
2023-10-28T06:41:02.705Z,2.70
2023-10-28T06:43:29.032Z,3.00
2023-10-28T06:45:55.336Z,2.92
2023-10-28T06:48:21.645Z,2.50
2023-10-28T06:50:49.454Z,2.67
2023-10-28T06:53:15.943Z,2.88
2023-10-28T06:55:42.384Z,3.70
2023-10-28T06:58:08.697Z,3.17
2023-10-28T07:00:34.981Z,3.47
2023-10-28T07:03:01.576Z,2.72
2023-10-28T07:05:28.161Z,3.10
2023-10-28T07:07:57.200Z,3.03
2023-10-28T07:10:23.637Z,2.90
2023-10-28T07:12:50.992Z,2.67
2023-10-28T07:15:18.027Z,3.03
2023-10-28T07:17:44.741Z,2.80
2023-10-28T07:20:11.360Z,2.60
2023-10-28T07:22:37.833Z,2.70
2023-10-28T07:25:05.229Z,2.50
2023-10-28T07:27:32.987Z,2.78
2023-10-28T07:30:00.456Z,2.95
2023-10-28T07:32:26.953Z,2.85
2023-10-28T07:34:53.336Z,2.72
2023-10-28T07:37:19.776Z,3.13
2023-10-28T07:39:46.361Z,2.90
2023-10-28T07:42:12.878Z,2.72
2023-10-28T07:44:40.716Z,3.78
2023-10-28T07:47:07.820Z,2.50
2023-10-28T07:49:34.290Z,3.15
2023-10-28T07:52:00.649Z,2.75
2023-10-28T07:54:26.949Z,2.85
2023-10-28T07:56:53.274Z,2.17
2023-10-28T07:59:20.558Z,2.80
2023-10-28T08:01:46.922Z,2.33
2023-10-28T08:04:14.971Z,3.13
2023-10-28T08:06:44.222Z,2.10
2023-10-28T08:09:10.780Z,2.70
2023-10-28T08:11:37.111Z,2.17
2023-10-28T08:14:04.776Z,2.63
2023-10-28T08:16:31.481Z,2.05
2023-10-28T08:18:59.483Z,2.08
2023-10-28T08:21:26.236Z,2.70
2023-10-28T08:23:52.616Z,3.78
2023-10-28T08:26:19.676Z,2.83
2023-10-28T08:28:47.974Z,2.75
2023-10-28T08:31:14.325Z,3.78
2023-10-28T08:33:43.371Z,2.35
2023-10-28T08:36:10.687Z,2.47
2023-10-28T08:38:38.108Z,3.38
2023-10-28T08:41:05.085Z,2.63
2023-10-28T08:43:37.906Z,2.78
2023-10-28T08:46:05.726Z,2.03
2023-10-28T08:48:35.343Z,2.30
2023-10-28T08:51:03.283Z,2.55
2023-10-28T08:53:30.922Z,2.25
2023-10-28T08:55:58.094Z,2.33
2023-10-28T08:58:24.587Z,2.30
2023-10-28T09:00:58.150Z,2.05
2023-10-28T09:03:26.354Z,2.13
2023-10-28T09:05:56.036Z,2.70
2023-10-28T09:08:22.618Z,3.55
2023-10-28T09:10:49.072Z,2.63
2023-10-28T09:13:15.924Z,3.78
2023-10-28T09:15:42.721Z,2.88
2023-10-28T09:18:11.793Z,2.75
2023-10-28T09:20:42.516Z,2.30
2023-10-28T09:23:08.857Z,2.33
2023-10-28T09:25:36.890Z,3.85
2023-10-28T09:28:09.180Z,2.83
2023-10-28T09:30:45.488Z,3.92
2023-10-28T09:33:12.270Z,2.42
2023-10-28T09:35:40.327Z,2.33
2023-10-28T09:38:07.333Z,2.50
2023-10-28T09:40:34.992Z,2.83
2023-10-28T09:43:04.353Z,1.70
2023-10-28T09:45:31.778Z,1.77
2023-10-28T09:47:59.246Z,2.92
2023-10-28T09:50:29.255Z,2.28
2023-10-28T09:52:57.518Z,2.35
2023-10-28T09:55:25.511Z,2.10
2023-10-28T09:58:01.342Z,2.95
2023-10-28T10:00:28.658Z,2.70
2023-10-28T10:03:13.481Z,2.72
2023-10-28T10:05:46.160Z,2.55
2023-10-28T10:08:19.554Z,2.08
2023-10-28T10:10:49.144Z,2.40
2023-10-28T10:13:18.208Z,2.80
2023-10-28T10:15:49.951Z,2.30
2023-10-28T10:18:22.617Z,2.15
2023-10-28T10:20:48.986Z,1.80
2023-10-28T10:23:15.522Z,2.03
2023-10-28T10:25:42.666Z,2.63
2023-10-28T10:28:16.327Z,2.47
2023-10-28T10:30:45.082Z,2.20
2023-10-28T10:33:12.345Z,3.03
2023-10-28T10:35:39.301Z,2.00
2023-10-28T10:38:06.668Z,1.88
2023-10-28T10:40:33.983Z,2.72
2023-10-28T10:43:06.826Z,2.55
2023-10-28T10:45:33.529Z,1.90
2023-10-28T10:47:59.925Z,2.97
2023-10-28T10:50:26.925Z,2.08
2023-10-28T10:52:53.311Z,2.75
2023-10-28T10:55:25.668Z,1.95
2023-10-28T10:57:52.377Z,1.95
2023-10-28T11:00:19.921Z,2.30
2023-10-28T11:02:47.070Z,1.52
2023-10-28T11:05:13.683Z,1.63
2023-10-28T11:07:42.257Z,1.90
2023-10-28T11:10:09.400Z,1.60
2023-10-28T11:12:36.168Z,2.65
2023-10-28T11:15:04.145Z,2.53
2023-10-28T11:17:30.716Z,2.35
2023-10-28T11:19:57.879Z,2.50
2023-10-28T11:22:24.621Z,1.77
2023-10-28T11:24:57.413Z,1.25
2023-10-28T11:27:27.362Z,1.35
2023-10-28T11:29:59.416Z,1.98
2023-10-28T11:32:27.291Z,2.17
2023-10-28T11:34:54.348Z,1.67
2023-10-28T11:37:20.874Z,1.65
2023-10-28T11:39:49.116Z,1.75
2023-10-28T11:42:16.871Z,1.90
2023-10-28T11:44:48.154Z,1.83
2023-10-28T11:47:15.136Z,1.75
2023-10-28T11:49:41.471Z,2.30
2023-10-28T11:52:08.070Z,1.80
2023-10-28T11:54:37.342Z,2.08
2023-10-28T11:57:03.793Z,1.95
2023-10-28T11:59:30.183Z,2.63
2023-10-28T12:01:56.474Z,1.90
2023-10-28T12:04:22.789Z,2.00
2023-10-28T12:06:49.114Z,1.95
2023-10-28T12:09:15.573Z,1.85
2023-10-28T12:11:42.174Z,2.13
2023-10-28T12:14:09.213Z,2.03
2023-10-28T12:16:39.221Z,2.03
2023-10-28T12:19:06.767Z,2.00
2023-10-28T12:21:35.083Z,2.42
2023-10-28T12:24:04.181Z,1.73
2023-10-28T12:26:30.563Z,2.17
2023-10-28T12:28:57.841Z,2.85
2023-10-28T12:31:24.622Z,2.63
2023-10-28T12:33:51.284Z,2.95
2023-10-28T12:36:18.194Z,3.28
2023-10-28T12:38:47.528Z,2.35
2023-10-28T12:41:13.997Z,2.20
2023-10-28T12:43:40.846Z,3.63
2023-10-28T12:46:07.474Z,2.75
2023-10-28T12:48:34.417Z,2.28
2023-10-28T12:51:03.525Z,2.67
2023-10-28T12:53:30.510Z,2.47
2023-10-28T12:55:57.884Z,2.70
2023-10-28T12:58:24.621Z,2.42
2023-10-28T13:00:50.924Z,2.65
2023-10-28T13:03:17.431Z,2.85
2023-10-28T13:05:43.762Z,3.08
2023-10-28T13:08:10.685Z,2.50
2023-10-28T13:10:37.874Z,2.70
2023-10-28T13:13:04.635Z,2.60
2023-10-28T13:15:30.989Z,2.67
2023-10-28T13:18:00.020Z,2.88
2023-10-28T13:20:26.598Z,2.15
2023-10-28T13:22:53.238Z,2.47
2023-10-28T13:25:20.131Z,2.47
2023-10-28T13:27:46.404Z,2.60
2023-10-28T13:30:13.275Z,2.40
2023-10-28T13:32:52.140Z,3.25
2023-10-28T13:35:22.762Z,3.13
2023-10-28T13:37:50.684Z,2.80
2023-10-28T13:40:17.176Z,2.78
2023-10-28T13:42:43.512Z,2.92
2023-10-28T13:45:10.062Z,3.28
2023-10-28T13:47:37.008Z,3.83
2023-10-28T13:50:05.886Z,2.95
2023-10-28T13:52:33.476Z,3.05
2023-10-28T13:54:59.822Z,3.72
2023-10-28T13:57:26.153Z,4.32
2023-10-28T13:59:54.262Z,3.22
2023-10-28T14:02:20.918Z,3.22
2023-10-28T14:04:47.300Z,2.80
2023-10-28T14:07:13.617Z,3.65
2023-10-28T14:09:39.944Z,3.10
2023-10-28T14:12:06.393Z,3.17
2023-10-28T14:14:32.752Z,3.30
2023-10-28T14:16:59.084Z,2.42
2023-10-28T14:19:25.461Z,3.60
2023-10-28T14:21:51.759Z,3.85
2023-10-28T14:24:20.706Z,3.90
2023-10-28T14:26:47.342Z,3.78
2023-10-28T14:29:13.727Z,4.00
2023-10-28T14:31:40.124Z,9.50
2023-10-28T14:34:06.438Z,30.42
2023-10-28T14:36:32.850Z,81.40
2023-10-28T14:38:59.132Z,110.03
2023-10-28T14:41:25.536Z,130.60
2023-10-28T14:43:52.008Z,230.63
2023-10-28T14:46:18.443Z,232.02
2023-10-28T14:48:44.733Z,247.95
2023-10-28T14:51:12.048Z,347.35
2023-10-28T14:53:38.372Z,331.23
2023-10-28T14:56:13.529Z,341.15
2023-10-28T14:58:40.132Z,269.25
2023-10-28T15:01:10.392Z,73.45
2023-10-28T15:03:38.163Z,9.93
2023-10-28T15:06:05.684Z,5.93
2023-10-28T15:08:32.384Z,3.53
2023-10-28T15:11:07.548Z,3.45
2023-10-28T15:13:34.453Z,4.30
2023-10-28T15:16:01.213Z,6.68
2023-10-28T15:18:28.533Z,8.70
2023-10-28T15:20:55.662Z,5.60
2023-10-28T15:23:23.553Z,4.28
2023-10-28T15:25:50.132Z,4.25
2023-10-28T15:28:16.457Z,4.90
2023-10-28T15:30:43.601Z,4.72
2023-10-28T15:33:09.974Z,5.20
2023-10-28T15:35:37.306Z,5.53
2023-10-28T15:38:03.713Z,5.50
2023-10-28T15:40:29.978Z,3.45
2023-10-28T15:42:57.004Z,4.38
2023-10-28T15:45:24.833Z,3.75
2023-10-28T15:47:52.511Z,3.88
2023-10-28T15:50:18.960Z,4.82
2023-10-28T15:52:48.154Z,4.65
2023-10-28T15:55:14.520Z,4.28
2023-10-28T15:57:41.001Z,5.47
2023-10-28T16:00:09.140Z,4.82
2023-10-28T16:02:38.808Z,4.70
2023-10-28T16:05:05.564Z,4.40
2023-10-28T16:07:32.067Z,4.72
2023-10-28T16:09:59.035Z,4.90
2023-10-28T16:12:25.650Z,4.47
2023-10-28T16:14:52.076Z,4.60
2023-10-28T16:17:18.330Z,6.32
2023-10-28T16:19:47.445Z,7.13
2023-10-28T16:22:15.162Z,6.55
2023-10-28T16:24:41.491Z,6.55
2023-10-28T16:27:07.875Z,6.45
2023-10-28T16:29:34.361Z,5.15
2023-10-28T16:32:00.745Z,4.35
2023-10-28T16:34:27.086Z,5.88
2023-10-28T16:36:54.536Z,5.80
2023-10-28T16:39:20.792Z,5.55
2023-10-28T16:41:47.168Z,6.25
2023-10-28T16:44:13.468Z,5.15
2023-10-28T16:46:41.281Z,5.05
2023-10-28T16:49:11.130Z,6.03
2023-10-28T16:51:39.602Z,4.80
2023-10-28T16:54:09.227Z,3.63
2023-10-28T16:56:35.851Z,4.10
2023-10-28T16:59:02.891Z,3.47
2023-10-28T17:01:30.024Z,4.93
2023-10-28T17:03:58.028Z,4.68
2023-10-28T17:06:26.240Z,4.05
2023-10-28T17:08:55.474Z,4.38
2023-10-28T17:11:25.486Z,3.50
2023-10-28T17:13:53.972Z,4.63
2023-10-28T17:16:21.161Z,5.18
2023-10-28T17:18:47.704Z,5.97
2023-10-28T17:21:14.163Z,5.82
2023-10-28T17:23:40.926Z,6.88
2023-10-28T17:26:07.473Z,5.10
2023-10-28T17:28:34.152Z,5.00
2023-10-28T17:31:02.043Z,5.43
2023-10-28T17:33:28.465Z,6.15
2023-10-28T17:35:55.453Z,5.85
2023-10-28T17:38:23.116Z,5.30
2023-10-28T17:40:50.071Z,6.93
2023-10-28T17:43:16.375Z,5.20
2023-10-28T17:45:42.707Z,7.63
2023-10-28T17:48:09.135Z,7.15
2023-10-28T17:50:36.190Z,6.55
2023-10-28T17:53:02.976Z,5.68
2023-10-28T17:55:29.724Z,5.45
2023-10-28T17:57:56.055Z,5.13
2023-10-28T18:00:22.650Z,4.85
2023-10-28T18:02:49.336Z,7.05
2023-10-28T18:05:15.766Z,7.78
2023-10-28T18:07:42.568Z,10.43
2023-10-28T18:10:09.839Z,8.27
2023-10-28T18:12:36.133Z,5.25
2023-10-28T18:15:02.447Z,4.72
2023-10-28T18:17:29.191Z,3.75
2023-10-28T18:19:56.011Z,4.68
2023-10-28T18:22:22.273Z,5.22
2023-10-28T18:24:48.555Z,3.78
2023-10-28T18:27:14.875Z,3.22
2023-10-28T18:29:42.814Z,3.25
2023-10-28T18:32:13.371Z,3.75
2023-10-28T18:37:08.148Z,2.90
2023-10-28T18:39:34.590Z,4.45
2023-10-28T18:42:00.935Z,4.30
2023-10-28T18:44:27.376Z,4.35
2023-10-28T18:46:53.679Z,4.05
2023-10-28T18:49:20.120Z,4.82
2023-10-28T18:51:46.418Z,4.63
2023-10-28T18:54:12.939Z,6.40
2023-10-28T18:56:40.444Z,3.80
2023-10-28T18:59:06.792Z,3.08
2023-10-28T19:01:33.141Z,3.67
2023-10-28T19:03:59.795Z,3.63
2023-10-28T19:06:26.329Z,3.85
2023-10-28T19:08:53.258Z,3.00
2023-10-28T19:11:19.622Z,2.67
2023-10-28T19:13:46.636Z,3.15
2023-10-28T19:16:12.948Z,2.63
2023-10-28T19:18:40.533Z,2.80
2023-10-28T19:21:06.910Z,2.88
2023-10-28T19:23:33.339Z,2.85
2023-10-28T19:25:59.694Z,2.75
2023-10-28T19:28:26.676Z,2.60
2023-10-28T19:30:53.123Z,3.13
2023-10-28T19:33:19.737Z,3.13
2023-10-28T19:35:46.199Z,2.95
2023-10-28T19:38:12.532Z,3.22
2023-10-28T19:40:39.296Z,2.70
2023-10-28T19:43:05.663Z,2.60
2023-10-28T19:45:32.044Z,2.65
2023-10-28T19:47:58.497Z,2.60
2023-10-28T19:50:25.979Z,2.20
2023-10-28T19:52:52.470Z,2.00
2023-10-28T19:55:18.866Z,2.22
2023-10-28T19:57:45.872Z,2.67
2023-10-28T20:00:13.317Z,1.92
2023-10-28T20:02:44.174Z,2.13
2023-10-28T20:05:12.618Z,1.70
2023-10-28T20:07:39.278Z,1.95
2023-10-28T20:10:08.362Z,2.05
2023-10-28T20:12:35.496Z,2.28
2023-10-28T20:15:02.265Z,1.70
2023-10-28T20:17:28.802Z,2.20
2023-10-28T20:19:55.216Z,2.50
2023-10-28T20:22:21.604Z,2.30
2023-10-28T20:24:47.938Z,1.98
2023-10-28T20:27:14.271Z,1.95
2023-10-28T20:29:40.740Z,2.28
2023-10-28T20:32:09.921Z,1.95
2023-10-28T20:34:36.482Z,2.80
2023-10-28T20:37:02.892Z,2.33
2023-10-28T20:39:29.398Z,2.50
2023-10-28T20:41:56.611Z,2.63
2023-10-28T20:44:23.075Z,2.30
2023-10-28T20:46:49.843Z,2.70
2023-10-28T20:49:16.188Z,2.47
2023-10-28T20:51:43.254Z,2.72
2023-10-28T20:54:12.347Z,2.90
2023-10-28T20:56:38.928Z,2.65
2023-10-28T20:59:05.276Z,2.33
2023-10-28T21:01:31.807Z,2.58
2023-10-28T21:03:58.179Z,2.17
2023-10-28T21:06:24.653Z,2.33
2023-10-28T21:08:51.123Z,2.20
2023-10-28T21:11:17.421Z,1.83
2023-10-28T21:13:43.725Z,2.15
2023-10-28T21:16:10.381Z,2.17
2023-10-28T21:18:36.836Z,2.63
2023-10-28T21:21:06.494Z,2.10
2023-10-28T21:23:33.047Z,1.90
2023-10-28T21:25:59.491Z,2.15
2023-10-28T21:28:26.466Z,1.52
2023-10-28T21:30:53.582Z,1.48
2023-10-28T21:33:20.584Z,2.35
2023-10-28T21:35:47.534Z,1.70
2023-10-28T21:38:14.084Z,1.83
2023-10-28T21:40:40.374Z,2.10
2023-10-28T21:43:06.633Z,1.92
2023-10-28T21:45:32.975Z,2.15
2023-10-28T21:47:59.584Z,2.00
2023-10-28T21:50:26.037Z,3.08
2023-10-28T21:52:52.401Z,2.30
2023-10-28T21:55:18.836Z,2.00
2023-10-28T21:57:45.233Z,2.25
2023-10-28T22:00:27.156Z,1.75
2023-10-28T22:02:53.630Z,1.60
2023-10-28T22:05:20.747Z,2.05
2023-10-28T22:07:48.977Z,1.70
2023-10-28T22:10:19.224Z,2.03
2023-10-28T22:12:47.578Z,2.10
2023-10-28T22:15:15.657Z,1.90
2023-10-28T22:17:45.673Z,2.05
2023-10-28T22:20:12.735Z,1.95
2023-10-28T22:22:39.653Z,1.88
2023-10-28T22:25:06.834Z,1.63
2023-10-28T22:27:33.884Z,1.85
2023-10-28T22:30:00.303Z,1.65
2023-10-28T22:32:26.900Z,1.50
2023-10-28T22:34:53.296Z,1.60
2023-10-28T22:37:19.548Z,1.80
2023-10-28T22:39:46.788Z,1.85
2023-10-28T22:42:13.110Z,1.73
2023-10-28T22:44:39.549Z,1.50
2023-10-28T22:47:06.259Z,1.48
2023-10-28T22:49:32.534Z,2.05
2023-10-28T22:51:58.892Z,1.30
2023-10-28T22:54:25.620Z,1.42
2023-10-28T22:56:52.078Z,1.67
2023-10-28T22:59:18.789Z,1.40
2023-10-28T23:01:45.226Z,1.17
2023-10-28T23:04:14.664Z,1.17
2023-10-28T23:06:41.338Z,1.30
2023-10-28T23:09:07.653Z,1.40
2023-10-28T23:11:37.595Z,1.30
2023-10-28T23:14:04.154Z,1.52
2023-10-28T23:16:33.414Z,1.08
2023-10-28T23:18:59.775Z,1.00
2023-10-28T23:21:27.087Z,1.10
2023-10-28T23:23:54.566Z,1.35
2023-10-28T23:26:23.369Z,1.50
2023-10-28T23:28:50.062Z,1.23
2023-10-28T23:31:16.604Z,1.10
2023-10-28T23:33:43.057Z,1.33
2023-10-28T23:36:09.325Z,1.42
2023-10-28T23:38:35.753Z,1.33
2023-10-28T23:41:02.110Z,1.20
2023-10-28T23:43:29.191Z,1.40
2023-10-28T23:45:55.690Z,1.17
2023-10-28T23:48:23.075Z,1.63
2023-10-28T23:50:49.508Z,1.33
2023-10-28T23:53:15.863Z,1.00
2023-10-28T23:55:42.394Z,1.08
2023-10-28T23:58:08.846Z,1.05
